Time;durP1;ratioP1;P1;durP2;ratioP2;P2;SDS_P1;SDS_P2;PMS_P1;PMS_P2;Temp;Humidity;BMP_temperature;BMP_pressure;BME280_temperature;BME280_humidity;BME280_pressure;Samples;Min_cycle;Max_cycle;Signal;HPM_P1;HPM_P2
2022/01/06 00:08:10;;;;;;;11.52;3.35;;;3.90;99.90;;;;;;6736374;88;20201;-75
2022/01/06 00:18:19;;;;;;;13.57;3.58;;;3.90;99.90;;;;;;6735942;88;20779;-75
2022/01/06 00:28:20;;;;;;;13.13;4.22;;;4.10;99.90;;;;;;6736471;88;20209;-75
2022/01/06 00:38:22;;;;;;;14.60;4.45;;;4.10;99.90;;;;;;6736691;88;20380;-74
2022/01/06 00:48:23;;;;;;;14.98;4.03;;;4.20;99.90;;;;;;6736505;88;20196;-74
2022/01/06 00:58:23;;;;;;;17.02;4.15;;;4.10;99.90;;;;;;6732347;88;20210;-75
2022/01/06 01:08:25;;;;;;;16.90;4.43;;;4.10;99.90;;;;;;6741187;88;20188;-75
2022/01/06 01:18:26;;;;;;;18.35;3.87;;;4.10;99.90;;;;;;6728711;88;20368;-75
2022/01/06 01:28:33;;;;;;;14.50;4.12;;;4.20;99.90;;;;;;6734195;88;20741;-75
2022/01/06 01:38:33;;;;;;;8.18;2.60;;;4.20;99.90;;;;;;6738999;88;20211;-74
2022/01/06 01:48:36;;;;;;;17.98;2.62;;;4.20;99.90;;;;;;6739992;88;20227;-75
2022/01/06 01:58:38;;;;;;;14.87;2.70;;;4.00;99.90;;;;;;6735202;88;20198;-75
2022/01/06 02:08:39;;;;;;;13.02;2.17;;;3.80;99.90;;;;;;6737205;88;20229;-75
2022/01/06 02:18:39;;;;;;;15.23;2.80;;;3.80;99.90;;;;;;6735787;88;20237;-75
2022/01/06 02:28:40;;;;;;;14.52;2.65;;;3.70;99.90;;;;;;6734035;88;20239;-75
2022/01/06 02:38:41;;;;;;;15.45;2.50;;;3.50;99.90;;;;;;6725279;88;20202;-75
2022/01/06 02:48:41;;;;;;;12.93;2.67;;;3.50;99.90;;;;;;6730067;88;20295;-75
2022/01/06 02:58:42;;;;;;;13.65;3.03;;;3.30;99.90;;;;;;6732988;88;20209;-75
2022/01/06 03:08:42;;;;;;;13.38;2.20;;;3.20;99.90;;;;;;6737271;88;20241;-75
2022/01/06 03:18:43;;;;;;;14.02;2.15;;;3.30;99.90;;;;;;6742575;88;20195;-75
2022/01/06 03:28:43;;;;;;;17.83;2.35;;;3.30;99.90;;;;;;6738420;88;20238;-75
2022/01/06 03:38:44;;;;;;;11.02;2.15;;;3.40;99.90;;;;;;6738476;88;20653;-75
2022/01/06 03:48:44;;;;;;;7.93;2.12;;;3.30;99.90;;;;;;6738698;88;20716;-76
2022/01/06 03:58:45;;;;;;;12.27;2.17;;;3.40;99.90;;;;;;6736619;88;20604;-76
2022/01/06 04:08:46;;;;;;;12.70;1.83;;;3.30;99.90;;;;;;6737602;88;20656;-74
2022/01/06 04:18:46;;;;;;;16.98;1.92;;;3.50;99.90;;;;;;6744585;88;20204;-74
2022/01/06 04:28:47;;;;;;;19.10;2.28;;;3.60;99.90;;;;;;6741231;88;20211;-74
2022/01/06 04:38:47;;;;;;;11.12;1.67;;;3.50;99.90;;;;;;6737465;88;20576;-74
2022/01/06 04:48:48;;;;;;;13.15;2.25;;;3.50;99.90;;;;;;6737826;88;20222;-76
2022/01/06 04:58:49;;;;;;;21.48;2.30;;;3.50;99.90;;;;;;6738247;88;20486;-74
2022/01/06 05:08:49;;;;;;;14.82;2.33;;;3.50;99.90;;;;;;6728547;88;20309;-76
2022/01/06 05:18:50;;;;;;;13.07;1.92;;;3.60;99.90;;;;;;6725850;88;20672;-74
2022/01/06 05:28:50;;;;;;;8.02;1.48;;;3.60;99.90;;;;;;6702157;76;20571;-77
2022/01/06 05:38:51;;;;;;;11.60;2.05;;;3.60;99.90;;;;;;6689314;88;20187;-76
2022/01/06 05:48:52;;;;;;;14.25;1.90;;;3.60;99.90;;;;;;6691521;88;20270;-76
2022/01/06 05:58:52;;;;;;;9.30;1.85;;;3.40;99.90;;;;;;6690362;88;20220;-74
2022/01/06 06:08:53;;;;;;;15.10;2.15;;;3.50;99.90;;;;;;6683973;88;20187;-76
2022/01/06 06:18:53;;;;;;;14.38;1.92;;;3.60;99.90;;;;;;6688538;88;20176;-76
2022/01/06 06:28:54;;;;;;;12.57;1.90;;;3.50;99.90;;;;;;6685840;89;20195;-76
2022/01/06 06:38:54;;;;;;;13.68;1.80;;;3.40;99.90;;;;;;6687378;88;20191;-76
2022/01/06 06:48:55;;;;;;;18.77;2.80;;;3.50;99.90;;;;;;6684908;88;20203;-76
2022/01/06 06:58:55;;;;;;;14.98;2.55;;;3.30;99.90;;;;;;6683731;88;20235;-77
2022/01/06 07:08:56;;;;;;;16.67;2.55;;;3.40;99.90;;;;;;6677440;88;20210;-76
2022/01/06 07:18:56;;;;;;;12.18;3.22;;;3.50;99.90;;;;;;6686235;88;20190;-77
2022/01/06 07:28:57;;;;;;;17.02;3.03;;;3.40;99.90;;;;;;6694173;88;20982;-76
2022/01/06 07:38:58;;;;;;;14.87;3.03;;;3.20;99.90;;;;;;6687254;88;20209;-76
2022/01/06 07:48:58;;;;;;;15.40;3.42;;;3.30;99.90;;;;;;6687507;88;20627;-75
2022/01/06 07:58:59;;;;;;;14.07;3.10;;;3.20;99.90;;;;;;6687256;88;20202;-78
2022/01/06 08:09:00;;;;;;;13.70;3.72;;;3.10;99.90;;;;;;6687355;88;20228;-76
2022/01/06 08:19:00;;;;;;;16.33;4.18;;;3.10;99.90;;;;;;6673432;88;20216;-74
2022/01/06 08:29:01;;;;;;;14.82;4.30;;;3.10;99.90;;;;;;6671974;88;20614;-77
2022/01/06 08:39:02;;;;;;;15.02;3.90;;;3.20;99.90;;;;;;6675051;88;20262;-76
2022/01/06 08:49:04;;;;;;;17.98;4.22;;;3.50;99.90;;;;;;6684263;88;20387;-76
2022/01/06 08:59:04;;;;;;;15.85;3.97;;;3.70;99.90;;;;;;6682413;89;20195;-76
2022/01/06 09:09:05;;;;;;;17.12;4.07;;;3.90;99.90;;;;;;6688477;88;21310;-77
2022/01/06 09:19:06;;;;;;;19.55;4.55;;;4.50;99.90;;;;;;6688982;88;20274;-77
2022/01/06 09:29:08;;;;;;;13.23;3.80;;;5.30;99.90;;;;;;6680741;88;20247;-77
2022/01/06 09:39:11;;;;;;;19.60;4.22;;;5.20;99.90;;;;;;6683439;88;20541;-75
2022/01/06 09:49:11;;;;;;;17.62;3.85;;;5.30;99.90;;;;;;6683488;88;20230;-77
2022/01/06 09:59:12;;;;;;;21.85;4.12;;;5.60;99.90;;;;;;6682527;88;20200;-76
2022/01/06 10:09:12;;;;;;;18.48;3.53;;;5.80;99.90;;;;;;6685329;88;20250;-74
2022/01/06 10:19:15;;;;;;;13.13;3.70;;;6.00;99.90;;;;;;6689452;88;20207;-76
2022/01/06 10:29:17;;;;;;;14.87;3.20;;;5.80;99.90;;;;;;6690479;88;20192;-76
2022/01/06 10:39:18;;;;;;;11.55;2.30;;;5.30;99.90;;;;;;6687244;88;20206;-77
2022/01/06 10:49:18;;;;;;;9.93;2.85;;;5.30;99.90;;;;;;6685425;88;20223;-77
2022/01/06 10:59:25;;;;;;;14.23;2.80;;;4.90;99.90;;;;;;6687632;88;20730;-76
2022/01/06 11:09:26;;;;;;;;;;;4.80;99.90;;;;;;6687924;88;20182;-76
2022/01/06 11:19:28;;;;;;;15.85;3.05;;;4.80;99.90;;;;;;6688257;88;20458;-73
2022/01/06 11:29:34;;;;;;;14.48;4.47;;;4.90;99.90;;;;;;6676366;88;20235;-76
2022/01/06 11:39:34;;;;;;;20.85;4.53;;;5.20;99.90;;;;;;6680129;88;20220;-75
2022/01/06 11:49:41;;;;;;;17.87;4.47;;;5.50;99.90;;;;;;6676951;88;20246;-76
2022/01/06 11:59:42;;;;;;;15.80;4.72;;;5.80;99.90;;;;;;6677508;88;20312;-73
2022/01/06 12:09:43;;;;;;;15.23;4.47;;;6.10;99.90;;;;;;6680565;88;20339;-77
2022/01/06 12:19:43;;;;;;;15.23;4.68;;;6.60;99.90;;;;;;6677196;88;20629;-76
2022/01/06 12:29:44;;;;;;;14.57;4.47;;;7.10;99.90;;;;;;6675168;88;20214;-75
2022/01/06 12:39:46;;;;;;;14.65;3.83;;;7.60;99.90;;;;;;6673292;88;20194;-75
2022/01/06 12:49:47;;;;;;;16.27;4.18;;;7.20;99.90;;;;;;6677357;88;20247;-74
2022/01/06 12:59:52;;;;;;;12.25;3.87;;;6.90;99.90;;;;;;6674382;88;20609;-76
2022/01/06 13:09:57;;;;;;;15.15;3.85;;;6.50;99.90;;;;;;6678376;88;20199;-76
2022/01/06 13:20:05;;;;;;;13.13;3.65;;;5.80;99.90;;;;;;6688316;88;21137;-76
2022/01/06 13:30:07;;;;;;;14.35;3.58;;;5.50;99.90;;;;;;6679660;88;20201;-76
2022/01/06 13:40:11;;;;;;;15.52;4.22;;;5.40;99.90;;;;;;6684659;88;20240;-76
2022/01/06 14:00:31;;;;;;;13.20;3.95;;;5.20;99.90;;;;;;6679597;88;20190;-76
2022/01/06 14:10:31;;;;;;;18.95;4.18;;;5.00;99.90;;;;;;6676671;88;20702;-76
2022/01/06 14:20:32;;;;;;;16.30;3.85;;;5.20;99.90;;;;;;6680452;88;20238;-76
2022/01/06 14:30:33;;;;;;;13.38;2.78;;;5.20;99.90;;;;;;6679694;88;20318;-76
2022/01/06 14:40:33;;;;;;;9.40;1.73;;;5.30;99.90;;;;;;6682182;88;20198;-76
2022/01/06 14:50:34;;;;;;;5.55;1.60;;;6.70;99.90;;;;;;6682025;88;20713;-76
2022/01/06 15:00:35;;;;;;;11.23;2.15;;;7.50;99.90;;;;;;6682216;88;20236;-74
2022/01/06 15:10:36;;;;;;;13.02;2.42;;;7.20;99.90;;;;;;6677625;88;20232;-76
2022/01/06 15:20:37;;;;;;;10.60;2.25;;;6.60;99.90;;;;;;6679337;88;20247;-76
2022/01/06 15:30:37;;;;;;;24.35;6.35;;;5.90;99.90;;;;;;6678214;88;20183;-76
2022/01/06 15:40:38;;;;;;;9.13;2.67;;;5.30;99.90;;;;;;6682412;88;20195;-75
2022/01/06 15:50:39;;;;;;;12.00;3.83;;;5.10;99.90;;;;;;6684523;88;20251;-75
2022/01/06 16:10:46;;;;;;;15.68;3.37;;;4.40;99.90;;;;;;6682545;88;20256;-73
2022/01/06 16:20:52;;;;;;;11.87;2.50;;;4.20;99.90;;;;;;6685201;89;20228;-73
2022/01/06 16:30:58;;;;;;;11.10;2.83;;;4.10;99.90;;;;;;6681190;88;20208;-75
2022/01/06 16:41:01;;;;;;;14.23;3.20;;;3.80;99.90;;;;;;6684835;88;20756;-76
2022/01/06 16:51:01;;;;;;;10.43;3.00;;;3.60;99.90;;;;;;6686868;88;20211;-75
2022/01/06 17:01:02;;;;;;;11.60;3.25;;;3.50;99.90;;;;;;6688437;88;20255;-75
2022/01/06 17:11:03;;;;;;;13.77;3.47;;;3.30;99.90;;;;;;6687038;88;20610;-76
2022/01/06 17:31:07;;;;;;;17.90;3.75;;;3.10;99.90;;;;;;6715264;88;20264;-75
2022/01/06 17:41:07;;;;;;;15.55;4.18;;;3.10;99.90;;;;;;6699471;88;20709;-75
2022/01/06 17:51:08;;;;;;;17.12;4.55;;;3.00;99.90;;;;;;6698919;88;20647;-75
2022/01/06 18:01:08;;;;;;;14.45;4.50;;;2.80;99.90;;;;;;6707205;88;20193;-76
2022/01/06 18:11:22;;;;;;;19.50;5.30;;;2.80;99.90;;;;;;6700516;88;20361;-76
2022/01/06 18:21:23;;;;;;;12.35;5.07;;;2.60;99.90;;;;;;6700015;88;20242;-74
2022/01/06 18:31:24;;;;;;;13.32;5.10;;;2.40;99.90;;;;;;6697895;88;20199;-75
2022/01/06 18:41:25;;;;;;;16.23;4.85;;;2.20;99.90;;;;;;6698452;88;20221;-76
2022/01/06 18:51:26;;;;;;;17.80;5.55;;;2.20;99.90;;;;;;6699036;88;20382;-75
2022/01/06 19:01:27;;;;;;;15.35;4.30;;;2.20;99.90;;;;;;6700462;88;20225;-76
2022/01/06 19:11:27;;;;;;;15.88;4.72;;;2.10;99.90;;;;;;6697428;88;20663;-76
2022/01/06 19:21:28;;;;;;;12.70;4.80;;;1.90;99.90;;;;;;6702532;88;20714;-75
2022/01/06 19:31:29;;;;;;;20.08;4.78;;;1.80;99.90;;;;;;6710133;88;20195;-76
2022/01/06 19:41:30;;;;;;;13.43;4.83;;;2.10;99.90;;;;;;6711775;88;20722;-76
2022/01/06 19:51:31;;;;;;;12.07;4.50;;;1.90;99.90;;;;;;6697685;88;20508;-76
2022/01/06 20:01:31;;;;;;;14.45;4.93;;;1.90;99.90;;;;;;6699707;88;20177;-76
2022/01/06 20:11:32;;;;;;;13.23;4.80;;;1.90;99.90;;;;;;6700501;88;20198;-75
2022/01/06 20:21:32;;;;;;;11.30;4.10;;;1.90;99.90;;;;;;6689994;88;20282;-74
2022/01/06 20:31:34;;;;;;;8.98;3.28;;;2.00;99.90;;;;;;6697783;88;20256;-74
2022/01/06 20:41:34;;;;;;;12.25;3.92;;;2.10;99.90;;;;;;6692849;88;20767;-75
2022/01/06 20:51:35;;;;;;;12.35;3.30;;;2.00;99.90;;;;;;6694080;88;20194;-75
2022/01/06 21:01:36;;;;;;;8.52;3.10;;;2.20;99.90;;;;;;6697576;88;20183;-75
2022/01/06 21:11:36;;;;;;;11.23;3.08;;;2.20;99.90;;;;;;6696507;88;20855;-74
2022/01/06 21:21:37;;;;;;;12.43;3.65;;;2.30;99.90;;;;;;6696671;88;20565;-76
2022/01/06 21:31:37;;;;;;;12.00;3.87;;;2.40;99.90;;;;;;6698110;88;20240;-76
2022/01/06 21:41:38;;;;;;;8.65;3.70;;;2.50;99.90;;;;;;6701165;88;20191;-75
2022/01/06 21:51:39;;;;;;;14.63;5.30;;;2.50;99.90;;;;;;6699722;88;20738;-76
2022/01/06 22:01:40;;;;;;;16.23;6.28;;;1.90;99.90;;;;;;6698585;88;20191;-75
2022/01/06 22:11:42;;;;;;;18.65;7.87;;;1.60;99.90;;;;;;6706575;88;20675;-75
2022/01/06 22:21:43;;;;;;;22.35;6.80;;;1.50;99.90;;;;;;6703998;88;20797;-76
2022/01/06 22:31:44;;;;;;;13.00;6.27;;;1.50;99.90;;;;;;6699754;88;20225;-75
2022/01/06 22:41:44;;;;;;;17.60;6.47;;;1.50;99.90;;;;;;6702682;88;20512;-75
2022/01/06 22:51:45;;;;;;;15.95;6.47;;;1.50;99.90;;;;;;6702946;88;20778;-75
2022/01/06 23:01:46;;;;;;;15.25;6.30;;;1.40;99.90;;;;;;6704117;88;20229;-75
2022/01/06 23:11:47;;;;;;;17.15;5.95;;;1.20;99.90;;;;;;6702577;88;20276;-76
2022/01/06 23:21:48;;;;;;;19.85;5.45;;;1.50;99.90;;;;;;6711587;77;20409;-74
2022/01/06 23:31:49;;;;;;;16.75;5.32;;;1.40;99.90;;;;;;6724748;88;20216;-74
2022/01/06 23:41:50;;;;;;;16.37;4.62;;;1.30;99.90;;;;;;6729257;88;20323;-74
2022/01/06 23:51:50;;;;;;;16.40;4.17;;;1.60;99.90;;;;;;6715287;88;20507;-74
